Time;durP1;ratioP1;P1;durP2;ratioP2;P2;SDS_P1;SDS_P2;PMS_P1;PMS_P2;Temp;Humidity;BMP_temperature;BMP_pressure;BME280_temperature;BME280_humidity;BME280_pressure;Samples;Min_cycle;Max_cycle;Signal;HPM_P1;HPM_P2
2021/12/30 00:02:24;;;;;;;13.05;2.40;;;8.50;99.90;;;;;;4825381;29;20061;-77
2021/12/30 00:04:49;;;;;;;19.17;3.03;;;8.30;99.90;;;;;;4810599;29;20444;-77
2021/12/30 00:07:15;;;;;;;14.27;3.03;;;8.40;99.90;;;;;;4811175;29;20045;-77
2021/12/30 00:09:41;;;;;;;12.50;2.90;;;8.50;99.90;;;;;;4799341;29;20481;-77
2021/12/30 00:12:07;;;;;;;14.15;2.67;;;8.30;99.90;;;;;;4830728;29;20051;-77
2021/12/30 00:14:33;;;;;;;14.82;2.85;;;8.20;99.90;;;;;;4812135;29;20064;-77
2021/12/30 00:16:59;;;;;;;20.75;3.65;;;8.40;99.90;;;;;;4823389;29;20450;-77
2021/12/30 00:19:24;;;;;;;16.42;3.30;;;8.20;99.90;;;;;;4803582;29;20077;-77
2021/12/30 00:21:50;;;;;;;19.73;3.70;;;8.50;99.90;;;;;;4814455;29;20124;-77
2021/12/30 00:24:16;;;;;;;18.65;3.50;;;8.20;99.90;;;;;;4822289;29;20057;-77
2021/12/30 00:26:42;;;;;;;;;;;8.20;99.90;;;;;;4799727;29;20058;-77
2021/12/30 00:29:08;;;;;;;22.05;3.53;;;8.50;99.90;;;;;;4816186;29;19925;-77
2021/12/30 00:31:34;;;;;;;18.45;4.07;;;8.20;99.90;;;;;;4813181;29;20050;-77
2021/12/30 00:34:00;;;;;;;21.65;3.45;;;8.30;99.90;;;;;;4822070;29;20057;-77
2021/12/30 00:36:26;;;;;;;20.73;3.90;;;8.20;99.90;;;;;;4794457;29;20055;-77
2021/12/30 00:38:52;;;;;;;16.00;3.88;;;8.40;99.90;;;;;;4821277;29;20497;-77
2021/12/30 00:41:19;;;;;;;21.63;3.80;;;8.40;99.90;;;;;;4844025;29;20523;-77
2021/12/30 00:43:46;;;;;;;20.70;4.22;;;8.10;99.90;;;;;;4808671;29;20054;-77
2021/12/30 00:46:12;;;;;;;23.38;4.25;;;8.40;99.90;;;;;;4814884;29;20046;-77
2021/12/30 00:48:39;;;;;;;19.85;3.10;;;8.30;99.90;;;;;;4815492;29;20082;-77
2021/12/30 00:51:06;;;;;;;22.98;4.63;;;8.20;99.90;;;;;;4823141;29;20170;-77
2021/12/30 00:53:32;;;;;;;24.60;5.25;;;8.20;99.90;;;;;;4823536;29;20053;-77
2021/12/30 00:55:58;;;;;;;18.15;3.75;;;8.20;99.90;;;;;;4813723;29;20062;-77
2021/12/30 00:58:24;;;;;;;27.10;4.05;;;8.30;99.90;;;;;;4823927;29;20153;-77
2021/12/30 01:00:50;;;;;;;26.85;4.47;;;8.40;99.90;;;;;;4821717;29;20046;-77
2021/12/30 01:03:16;;;;;;;21.95;4.00;;;8.20;99.90;;;;;;4804399;29;20125;-77
2021/12/30 01:05:44;;;;;;;20.27;4.40;;;8.30;99.90;;;;;;4818707;29;20441;-77
2021/12/30 01:08:10;;;;;;;27.27;4.60;;;8.30;99.90;;;;;;4816908;29;20038;-77
2021/12/30 01:10:37;;;;;;;21.98;4.43;;;8.00;99.90;;;;;;4838746;29;20061;-77
2021/12/30 01:13:08;;;;;;;;;;;7.90;99.90;;;;;;4811745;29;20045;-77
2021/12/30 01:15:58;;;;;;;25.85;5.25;;;8.10;99.90;;;;;;4809290;29;20383;-77
2021/12/30 01:18:36;;;;;;;28.50;4.57;;;8.10;99.90;;;;;;4816614;29;20054;-75
2021/12/30 01:21:02;;;;;;;17.63;3.63;;;8.10;99.90;;;;;;4814517;29;20053;-76
2021/12/30 01:23:28;;;;;;;26.25;4.57;;;7.90;99.90;;;;;;4815672;29;20109;-76
2021/12/30 01:25:57;;;;;;;23.05;4.28;;;7.90;99.90;;;;;;4824471;29;20042;-77
2021/12/30 01:28:26;;;;;;;23.33;3.75;;;8.00;99.90;;;;;;4799075;29;20077;-77
2021/12/30 01:30:52;;;;;;;24.92;4.57;;;7.80;99.90;;;;;;4813339;29;20054;-77
2021/12/30 01:33:18;;;;;;;;;;;8.00;99.90;;;;;;4825430;29;20050;-76
2021/12/30 01:35:44;;;;;;;29.88;5.30;;;7.80;99.90;;;;;;4803432;29;19935;-76
2021/12/30 01:38:12;;;;;;;25.20;4.80;;;8.10;99.90;;;;;;4814893;29;20049;-76
2021/12/30 01:40:41;;;;;;;25.60;4.55;;;8.00;99.90;;;;;;4823959;29;20049;-77
2021/12/30 01:43:07;;;;;;;25.00;4.70;;;7.80;99.90;;;;;;4821852;29;20074;-77
2021/12/30 01:45:34;;;;;;;30.83;4.97;;;8.00;99.90;;;;;;4810482;29;20046;-77
2021/12/30 01:48:00;;;;;;;31.05;7.25;;;8.00;99.90;;;;;;4821990;29;20129;-77
2021/12/30 01:50:26;;;;;;;27.02;5.53;;;7.70;99.90;;;;;;4801579;29;20043;-77
2021/12/30 01:52:52;;;;;;;23.83;4.53;;;7.70;99.90;;;;;;4807871;29;20049;-76
2021/12/30 01:55:19;;;;;;;31.98;5.43;;;8.00;99.90;;;;;;4812582;29;20076;-76
2021/12/30 01:57:47;;;;;;;29.67;5.50;;;8.00;99.90;;;;;;4812447;29;20050;-76
2021/12/30 02:00:16;;;;;;;34.45;5.22;;;7.90;99.90;;;;;;4793311;29;20061;-76
2021/12/30 02:02:42;;;;;;;27.63;4.63;;;8.00;99.90;;;;;;4833277;29;20054;-76
2021/12/30 02:05:08;;;;;;;30.67;5.00;;;7.80;99.90;;;;;;4832786;29;20058;-76
2021/12/30 02:07:34;;;;;;;24.00;4.30;;;7.80;99.90;;;;;;4796324;29;20050;-76
2021/12/30 02:10:02;;;;;;;32.85;6.00;;;7.80;99.90;;;;;;4819702;29;20047;-76
2021/12/30 02:12:32;;;;;;;28.00;5.57;;;7.90;99.90;;;;;;4810683;29;20108;-77
2021/12/30 02:14:58;;;;;;;31.85;5.30;;;7.90;99.90;;;;;;4795177;29;20054;-76
2021/12/30 02:17:24;;;;;;;25.98;4.75;;;8.00;99.90;;;;;;4808143;29;20050;-76
2021/12/30 02:19:50;;;;;;;32.47;5.05;;;7.90;99.90;;;;;;4811047;29;20106;-76
2021/12/30 02:22:15;;;;;;;31.70;4.53;;;8.00;99.90;;;;;;4801137;29;20107;-76
2021/12/30 02:24:49;;;;;;;28.15;4.70;;;7.90;99.90;;;;;;4812721;29;20054;-76
2021/12/30 02:27:15;;;;;;;29.00;4.70;;;8.10;99.90;;;;;;4796634;29;20407;-76
2021/12/30 02:29:41;;;;;;;26.85;5.05;;;8.10;99.90;;;;;;4820763;29;20136;-76
2021/12/30 02:32:07;;;;;;;25.20;5.00;;;8.10;99.90;;;;;;4828683;29;20051;-76
2021/12/30 02:34:33;;;;;;;29.80;5.25;;;8.10;99.90;;;;;;4815683;29;20034;-76
2021/12/30 02:36:59;;;;;;;28.35;5.18;;;8.10;99.90;;;;;;4823315;29;20042;-76
2021/12/30 02:39:25;;;;;;;28.80;4.93;;;7.80;99.90;;;;;;4814506;29;20054;-76
2021/12/30 02:41:51;;;;;;;26.33;5.25;;;7.70;99.90;;;;;;4819499;29;20119;-76
2021/12/30 02:44:18;;;;;;;36.25;5.13;;;7.70;99.90;;;;;;4814987;29;20503;-76
2021/12/30 02:46:43;;;;;;;;;;;8.00;99.90;;;;;;4818511;29;20498;-76
2021/12/30 02:49:10;;;;;;;26.45;4.53;;;8.00;99.90;;;;;;4824598;29;20015;-76
2021/12/30 02:51:36;;;;;;;28.10;4.80;;;7.70;99.90;;;;;;4809923;29;20508;-76
2021/12/30 02:54:03;;;;;;;25.38;5.05;;;7.90;99.90;;;;;;4816716;29;20080;-76
2021/12/30 02:56:30;;;;;;;29.33;5.22;;;7.80;99.90;;;;;;4800173;29;20050;-76
2021/12/30 02:58:56;;;;;;;28.10;4.88;;;8.00;99.90;;;;;;4809080;29;20046;-76
2021/12/30 03:01:26;;;;;;;25.20;5.47;;;8.00;99.90;;;;;;4818796;29;20485;-76
2021/12/30 03:03:53;;;;;;;29.45;5.78;;;7.90;99.90;;;;;;4815161;29;20102;-77
2021/12/30 03:06:19;;;;;;;27.38;5.22;;;7.90;99.90;;;;;;4826021;29;20095;-76
2021/12/30 03:08:46;;;;;;;35.33;6.05;;;8.00;99.90;;;;;;4822536;29;20073;-76
2021/12/30 03:11:12;;;;;;;36.30;6.13;;;8.10;99.90;;;;;;4815929;29;20117;-76
2021/12/30 03:13:41;;;;;;;32.70;6.43;;;8.00;99.90;;;;;;4798131;29;20133;-76
2021/12/30 03:16:14;;;;;;;23.55;4.82;;;8.00;99.90;;;;;;4811887;29;20050;-76
2021/12/30 03:18:43;;;;;;;28.67;5.70;;;7.90;99.90;;;;;;4814986;29;20057;-77
2021/12/30 03:21:11;;;;;;;23.20;5.35;;;8.20;99.90;;;;;;4842052;29;20042;-77
2021/12/30 03:23:37;;;;;;;29.13;6.43;;;8.00;99.90;;;;;;4823046;29;20421;-76
2021/12/30 03:26:04;;;;;;;22.17;5.82;;;8.00;99.90;;;;;;4795147;29;20157;-76
2021/12/30 03:28:30;;;;;;;27.77;5.97;;;8.30;99.90;;;;;;4807550;29;20507;-76
2021/12/30 03:30:59;;;;;;;30.92;7.32;;;8.20;99.90;;;;;;4794918;29;20042;-75
2021/12/30 03:33:26;;;;;;;35.60;7.72;;;8.20;99.90;;;;;;4808055;29;20046;-76
2021/12/30 03:35:52;;;;;;;34.90;7.43;;;8.30;99.90;;;;;;4808799;29;20062;-76
2021/12/30 03:38:17;;;;;;;33.28;8.55;;;8.40;99.90;;;;;;4818791;29;20377;-76
2021/12/30 03:40:43;;;;;;;29.42;6.80;;;8.50;99.90;;;;;;4803255;29;20105;-76
2021/12/30 03:43:09;;;;;;;32.85;7.35;;;8.40;99.90;;;;;;4827879;29;20085;-76
2021/12/30 03:45:34;;;;;;;34.60;7.88;;;8.50;99.90;;;;;;4779303;29;20069;-76
2021/12/30 03:48:01;;;;;;;28.90;7.35;;;8.40;99.90;;;;;;4806954;29;20539;-76
2021/12/30 03:50:29;;;;;;;32.58;7.25;;;8.40;99.90;;;;;;4806254;29;20396;-76
2021/12/30 03:53:01;;;;;;;33.25;8.30;;;8.50;99.90;;;;;;4790819;29;20623;-76
2021/12/30 03:55:32;;;;;;;34.53;7.82;;;8.60;99.90;;;;;;4816179;29;20126;-76
2021/12/30 03:57:58;;;;;;;36.00;8.35;;;8.50;99.90;;;;;;4818021;29;20042;-76
2021/12/30 04:00:26;;;;;;;38.10;8.20;;;8.60;99.90;;;;;;4821488;29;20122;-76
2021/12/30 04:02:51;;;;;;;31.27;7.70;;;8.50;99.90;;;;;;4813363;29;20141;-76
2021/12/30 04:05:17;;;;;;;36.33;7.82;;;8.70;99.90;;;;;;4793864;29;20148;-76
2021/12/30 04:07:43;;;;;;;35.08;8.20;;;8.60;99.90;;;;;;4810990;29;20046;-76
2021/12/30 04:10:12;;;;;;;29.17;7.18;;;8.60;99.90;;;;;;4810470;29;20052;-76
2021/12/30 04:12:39;;;;;;;38.88;8.27;;;8.60;99.90;;;;;;4806510;29;20058;-76
2021/12/30 04:15:07;;;;;;;31.73;7.80;;;8.90;99.90;;;;;;4798500;29;20310;-76
2021/12/30 04:17:32;;;;;;;30.27;7.20;;;8.90;99.90;;;;;;4816827;29;20058;-76
2021/12/30 04:19:58;;;;;;;26.48;6.88;;;8.90;99.90;;;;;;4815513;29;20044;-76
2021/12/30 04:22:24;;;;;;;34.47;7.60;;;9.20;99.90;;;;;;4803281;29;20146;-76
2021/12/30 04:24:50;;;;;;;27.65;6.22;;;9.10;99.90;;;;;;4822527;29;20585;-76
2021/12/30 04:27:16;;;;;;;31.30;7.15;;;9.00;99.90;;;;;;4806397;29;20138;-76
2021/12/30 04:29:42;;;;;;;37.33;7.45;;;9.00;99.90;;;;;;4824687;29;20050;-76
2021/12/30 04:32:08;;;;;;;;;;;9.00;99.90;;;;;;4821702;29;20073;-76
2021/12/30 04:34:34;;;;;;;33.28;7.93;;;9.30;99.90;;;;;;4826277;29;20441;-76
2021/12/30 04:36:59;;;;;;;28.13;7.20;;;9.30;99.90;;;;;;4821522;29;20042;-76
2021/12/30 04:39:27;;;;;;;32.63;7.05;;;9.40;99.90;;;;;;4826270;29;20041;-76
2021/12/30 04:41:53;;;;;;;27.35;6.60;;;9.10;99.90;;;;;;4823892;29;20046;-76
2021/12/30 04:44:19;;;;;;;33.97;7.38;;;9.50;99.90;;;;;;4811847;29;20127;-76
2021/12/30 04:46:45;;;;;;;31.73;7.53;;;9.30;99.90;;;;;;4804684;29;20081;-76
2021/12/30 04:49:10;;;;;;;29.73;7.78;;;9.50;99.90;;;;;;4799595;29;20128;-76
2021/12/30 04:51:36;;;;;;;34.80;7.47;;;9.20;99.90;;;;;;4807048;29;20050;-76
2021/12/30 04:54:02;;;;;;;37.15;7.50;;;9.20;99.90;;;;;;4811281;29;20057;-76
2021/12/30 04:56:27;;;;;;;35.25;7.22;;;9.30;99.90;;;;;;4810702;29;20043;-77
2021/12/30 04:58:53;;;;;;;33.40;7.63;;;9.60;99.90;;;;;;4802527;29;20121;-76
2021/12/30 05:01:19;;;;;;;34.47;7.85;;;9.50;99.90;;;;;;4802182;29;20492;-76
2021/12/30 05:03:45;;;;;;;30.85;8.05;;;9.70;99.90;;;;;;4813040;29;20054;-76
2021/12/30 05:06:11;;;;;;;36.78;8.95;;;9.50;99.90;;;;;;4801989;29;20049;-76
2021/12/30 05:08:37;;;;;;;35.22;8.77;;;9.70;99.90;;;;;;4816465;29;20492;-76
2021/12/30 05:11:04;;;;;;;39.97;9.07;;;9.70;99.90;;;;;;4815151;29;20153;-76
2021/12/30 05:13:31;;;;;;;39.53;9.60;;;9.80;99.90;;;;;;4817661;29;20054;-75
2021/12/30 05:15:56;;;;;;;;;;;9.70;99.90;;;;;;4817151;29;20111;-76
2021/12/30 05:18:30;;;;;;;42.75;10.77;;;10.10;99.90;;;;;;4837585;29;20358;-77
2021/12/30 05:21:01;;;;;;;37.10;10.27;;;10.10;99.90;;;;;;4844863;29;20121;-76
2021/12/30 05:23:27;;;;;;;42.45;11.75;;;10.20;99.90;;;;;;4821515;29;20042;-76
2021/12/30 05:25:53;;;;;;;41.45;11.20;;;10.30;99.90;;;;;;4800855;29;20069;-75
2021/12/30 05:28:19;;;;;;;39.03;11.00;;;10.20;99.90;;;;;;4789749;29;20484;-75
2021/12/30 05:30:45;;;;;;;36.30;10.93;;;10.40;99.90;;;;;;4812921;29;20476;-76
2021/12/30 05:33:11;;;;;;;38.65;11.13;;;10.40;99.90;;;;;;4821614;29;20490;-76
2021/12/30 05:35:37;;;;;;;31.10;10.52;;;10.40;99.90;;;;;;4819184;29;20366;-76
2021/12/30 05:38:03;;;;;;;34.63;11.20;;;10.20;99.90;;;;;;4817800;29;20046;-76
2021/12/30 05:40:29;;;;;;;;;;;10.50;99.90;;;;;;4807925;29;20050;-76
2021/12/30 05:42:55;;;;;;;39.03;11.85;;;10.40;99.90;;;;;;4817231;29;20039;-76
2021/12/30 05:45:21;;;;;;;36.28;11.20;;;10.40;99.90;;;;;;4810067;29;20133;-76
2021/12/30 05:47:50;;;;;;;26.52;9.90;;;10.50;99.90;;;;;;4793741;29;20465;-76
2021/12/30 05:50:25;;;;;;;24.42;9.65;;;10.40;99.90;;;;;;4815036;29;20506;-75
2021/12/30 05:52:51;;;;;;;20.73;8.30;;;10.60;99.90;;;;;;4817906;29;20081;-75
2021/12/30 05:55:18;;;;;;;20.42;8.20;;;10.60;99.90;;;;;;4803018;29;20042;-75
2021/12/30 05:57:44;;;;;;;;;;;10.60;99.90;;;;;;4809207;29;20054;-77
2021/12/30 06:00:14;;;;;;;19.63;7.20;;;10.70;99.90;;;;;;4840520;29;19931;-77
2021/12/30 06:02:40;;;;;;;16.05;6.68;;;10.50;99.90;;;;;;4822508;29;20046;-76
2021/12/30 06:05:06;;;;;;;12.88;6.05;;;10.70;99.90;;;;;;4799261;29;20053;-76
2021/12/30 06:07:33;;;;;;;15.05;6.85;;;10.80;99.90;;;;;;4807082;29;20102;-76
2021/12/30 06:09:59;;;;;;;10.85;5.35;;;10.80;99.90;;;;;;4802677;29;20153;-76
2021/12/30 06:12:24;;;;;;;16.20;6.10;;;10.80;99.90;;;;;;4815958;29;20133;-76
2021/12/30 06:14:50;;;;;;;10.95;5.15;;;10.80;99.90;;;;;;4806602;29;20046;-76
2021/12/30 06:17:16;;;;;;;14.57;6.00;;;10.80;99.90;;;;;;4823951;29;20095;-77
2021/12/30 06:19:43;;;;;;;12.23;6.15;;;10.60;99.90;;;;;;4795987;29;20065;-76
2021/12/30 06:22:13;;;;;;;12.77;6.47;;;10.90;99.90;;;;;;4827495;29;20140;-76
2021/12/30 06:24:39;;;;;;;12.65;6.63;;;10.90;99.90;;;;;;4810398;29;20109;-76
2021/12/30 06:27:06;;;;;;;11.40;6.40;;;10.80;99.90;;;;;;4800719;29;20054;-76
2021/12/30 06:29:33;;;;;;;13.07;7.72;;;10.80;99.90;;;;;;4802210;29;20043;-76
2021/12/30 06:31:59;;;;;;;13.98;7.88;;;10.90;99.90;;;;;;4792298;29;20050;-76
2021/12/30 06:34:24;;;;;;;19.60;8.55;;;10.70;99.90;;;;;;4817050;29;20049;-76
2021/12/30 06:36:50;;;;;;;19.67;8.98;;;11.00;99.90;;;;;;4809680;29;20049;-77
2021/12/30 06:39:16;;;;;;;17.65;8.98;;;10.70;99.90;;;;;;4809635;29;20082;-76
2021/12/30 06:41:41;;;;;;;22.55;9.35;;;10.80;99.90;;;;;;4816614;29;20050;-76
2021/12/30 06:44:07;;;;;;;18.92;9.50;;;10.80;99.90;;;;;;4809620;29;20519;-76
2021/12/30 06:46:33;;;;;;;20.75;10.23;;;10.80;99.90;;;;;;4814371;29;20051;-75
2021/12/30 06:48:59;;;;;;;20.85;9.93;;;10.80;99.90;;;;;;4788645;29;20049;-76
2021/12/30 06:51:27;;;;;;;15.93;9.65;;;11.00;99.90;;;;;;4810781;29;20130;-76
2021/12/30 06:53:55;;;;;;;20.52;9.88;;;11.00;99.90;;;;;;4806343;29;20625;-76
2021/12/30 06:56:23;;;;;;;18.58;9.13;;;10.80;99.90;;;;;;4802430;29;20070;-76
2021/12/30 06:58:49;;;;;;;19.88;9.70;;;11.00;99.90;;;;;;4798042;29;20493;-75
2021/12/30 07:01:14;;;;;;;16.02;9.20;;;11.10;99.90;;;;;;4823125;29;20058;-76
2021/12/30 07:03:40;;;;;;;19.90;9.43;;;11.10;99.90;;;;;;4823831;29;20050;-76
2021/12/30 07:06:07;;;;;;;16.10;9.00;;;11.00;99.90;;;;;;4809177;29;20046;-76
2021/12/30 07:08:33;;;;;;;16.33;8.23;;;11.10;99.90;;;;;;4824517;29;20806;-76
2021/12/30 07:10:58;;;;;;;13.40;7.63;;;11.10;99.90;;;;;;4816537;29;20038;-76
2021/12/30 07:13:24;;;;;;;15.32;7.90;;;11.00;99.90;;;;;;4816069;29;20053;-77
2021/12/30 07:15:50;;;;;;;14.88;7.45;;;11.20;99.90;;;;;;4794053;29;20044;-77
2021/12/30 07:18:16;;;;;;;15.73;7.47;;;11.20;99.90;;;;;;4814806;29;20568;-77
2021/12/30 07:20:42;;;;;;;;;;;11.20;99.90;;;;;;4807217;29;20115;-76
2021/12/30 07:23:08;;;;;;;12.65;6.85;;;11.10;99.90;;;;;;4811759;29;19925;-76
2021/12/30 07:25:34;;;;;;;13.93;7.55;;;11.00;99.90;;;;;;4806431;29;20046;-76
2021/12/30 07:28:01;;;;;;;10.57;6.07;;;11.20;99.90;;;;;;4811538;29;20484;-77
2021/12/30 07:30:27;;;;;;;10.98;5.93;;;11.00;99.90;;;;;;4800691;29;20066;-77
2021/12/30 07:32:54;;;;;;;8.48;5.82;;;11.00;99.90;;;;;;4810868;29;20058;-77
2021/12/30 07:35:21;;;;;;;8.10;5.75;;;11.10;99.90;;;;;;4821081;29;20042;-78
2021/12/30 07:37:48;;;;;;;9.45;5.55;;;11.10;99.90;;;;;;4804102;29;20103;-78
2021/12/30 07:40:15;;;;;;;7.88;5.75;;;11.20;99.90;;;;;;4816650;29;20050;-78
2021/12/30 07:42:41;;;;;;;7.88;5.70;;;11.30;99.90;;;;;;4811961;29;20089;-77
2021/12/30 07:45:09;;;;;;;6.40;5.10;;;11.00;99.90;;;;;;4805743;29;20085;-77
2021/12/30 07:47:35;;;;;;;7.82;4.82;;;11.30;99.90;;;;;;4803421;29;20099;-77
2021/12/30 07:50:01;;;;;;;6.90;4.80;;;11.00;99.90;;;;;;4804593;29;20044;-77
2021/12/30 07:52:27;;;;;;;5.75;4.57;;;11.00;99.90;;;;;;4821494;29;20050;-77
2021/12/30 07:54:52;;;;;;;6.10;4.40;;;11.20;99.90;;;;;;4804488;29;20400;-76
2021/12/30 07:57:21;;;;;;;5.25;3.97;;;11.30;99.90;;;;;;4820210;29;20067;-77
2021/12/30 07:59:51;;;;;;;5.35;4.03;;;11.20;99.90;;;;;;4804880;29;20129;-77
2021/12/30 08:02:17;;;;;;;4.30;3.90;;;11.20;99.90;;;;;;4822020;29;20137;-77
2021/12/30 08:04:43;;;;;;;5.63;3.47;;;11.20;99.90;;;;;;4818018;29;20054;-76
2021/12/30 08:07:09;;;;;;;3.58;3.20;;;11.20;99.90;;;;;;4819182;29;20407;-78
2021/12/30 08:09:35;;;;;;;;;;;11.30;99.90;;;;;;4820741;29;20086;-78
2021/12/30 08:12:01;;;;;;;4.72;3.25;;;11.20;99.90;;;;;;4821662;29;19959;-78
2021/12/30 08:14:27;;;;;;;4.18;3.10;;;11.40;99.90;;;;;;4792420;29;20046;-77
2021/12/30 08:16:53;;;;;;;3.72;2.90;;;11.40;99.90;;;;;;4797802;29;20156;-77
2021/12/30 08:19:19;;;;;;;3.90;2.90;;;11.40;99.90;;;;;;4809556;29;20098;-77
2021/12/30 08:21:45;;;;;;;2.33;2.13;;;11.40;99.90;;;;;;4806200;29;20043;-77
2021/12/30 08:24:11;;;;;;;4.03;2.40;;;11.40;99.90;;;;;;4809112;29;20511;-80
2021/12/30 08:26:38;;;;;;;1.90;1.70;;;11.30;99.90;;;;;;4794373;29;20047;-77
2021/12/30 08:29:05;;;;;;;2.95;1.95;;;11.40;99.90;;;;;;4799808;29;20044;-76
2021/12/30 08:31:30;;;;;;;;;;;11.40;99.90;;;;;;4792342;29;20090;-78
2021/12/30 09:10:49;;;;;;;7.65;3.00;;;11.50;99.90;;;;;;5595036;24;20029;-79
2021/12/30 09:13:16;;;;;;;5.95;2.88;;;11.50;99.90;;;;;;4845358;29;20058;-81
2021/12/30 09:15:42;;;;;;;8.55;3.30;;;11.60;99.90;;;;;;4851447;29;20440;-74
2021/12/30 09:18:08;;;;;;;;;;;11.80;99.90;;;;;;4826763;29;20156;-73
2021/12/30 09:20:39;;;;;;;12.07;3.65;;;11.70;99.90;;;;;;4841852;29;20444;-75
2021/12/30 09:23:06;;;;;;;12.38;3.60;;;11.80;99.90;;;;;;4825457;29;20138;-73
2021/12/30 09:25:32;;;;;;;9.82;3.15;;;11.80;99.90;;;;;;4827027;29;20050;-72
2021/12/30 09:27:58;;;;;;;12.02;3.75;;;11.70;99.90;;;;;;4858085;29;20046;-83
2021/12/30 09:30:26;;;;;;;8.60;3.40;;;11.80;99.90;;;;;;4826998;29;20049;-74
2021/12/30 09:32:55;;;;;;;10.57;3.10;;;11.50;99.90;;;;;;4826810;29;20067;-74
2021/12/30 09:35:22;;;;;;;9.00;3.03;;;11.70;99.90;;;;;;4811703;29;20054;-75
2021/12/30 09:37:47;;;;;;;;;;;11.50;99.90;;;;;;4827338;29;20061;-75
2021/12/30 09:40:15;;;;;;;10.95;2.90;;;11.50;99.90;;;;;;4826871;29;19992;-75
2021/12/30 09:42:46;;;;;;;11.02;3.17;;;11.70;99.90;;;;;;4811753;29;20069;-74
2021/12/30 09:45:12;;;;;;;10.05;3.10;;;11.50;99.90;;;;;;4824355;29;20132;-74
2021/12/30 09:47:47;;;;;;;10.60;3.20;;;11.80;99.90;;;;;;4822580;29;20042;-75
2021/12/30 09:50:12;;;;;;;8.88;3.28;;;11.80;99.90;;;;;;4809627;29;20042;-74
2021/12/30 09:52:38;;;;;;;10.77;3.28;;;11.60;99.90;;;;;;4839552;29;20564;-74
2021/12/30 09:55:05;;;;;;;12.15;3.55;;;11.50;99.90;;;;;;4826562;29;20106;-74
2021/12/30 09:57:30;;;;;;;13.15;3.58;;;11.70;99.90;;;;;;4821886;29;20480;-74
2021/12/30 09:59:56;;;;;;;10.73;3.67;;;11.50;99.90;;;;;;4815526;29;20129;-75
2021/12/30 10:02:22;;;;;;;11.93;4.25;;;11.80;99.90;;;;;;4826341;29;20079;-76
2021/12/30 10:05:06;;;;;;;13.65;4.05;;;11.80;99.90;;;;;;4842739;29;20046;-75
2021/12/30 10:07:32;;;;;;;14.80;3.90;;;11.60;99.90;;;;;;4826304;29;20054;-75
2021/12/30 10:10:02;;;;;;;13.52;3.40;;;11.50;99.90;;;;;;4825700;29;20050;-75
2021/12/30 10:12:39;;;;;;;14.70;3.65;;;11.60;99.90;;;;;;4841726;29;20061;-75
2021/12/30 10:15:06;;;;;;;17.42;4.03;;;11.80;99.90;;;;;;4844076;29;20089;-75
2021/12/30 10:17:33;;;;;;;17.65;3.30;;;11.70;99.90;;;;;;4844656;29;20482;-76
2021/12/30 10:20:37;;;;;;;11.90;3.10;;;11.80;99.90;;;;;;4843568;29;20041;-75
2021/12/30 10:23:13;;;;;;;16.95;4.15;;;11.80;99.90;;;;;;4788638;29;20051;-75
2021/12/30 10:25:43;;;;;;;17.52;3.70;;;11.80;99.90;;;;;;4839431;29;20050;-75
2021/12/30 10:28:36;;;;;;;16.88;3.33;;;11.50;99.90;;;;;;4843690;29;20096;-73
2021/12/30 10:31:11;;;;;;;17.20;3.92;;;11.80;99.90;;;;;;4829077;29;20041;-74
2021/12/30 10:33:47;;;;;;;14.48;3.72;;;11.50;99.90;;;;;;4843354;29;20440;-74
2021/12/30 10:36:17;;;;;;;14.75;3.80;;;11.80;99.90;;;;;;4843755;29;20054;-75
2021/12/30 10:38:43;;;;;;;16.00;3.40;;;11.70;99.90;;;;;;4844113;29;20053;-73
2021/12/30 10:41:08;;;;;;;15.90;3.80;;;11.70;99.90;;;;;;4844318;29;20045;-73
2021/12/30 10:43:53;;;;;;;15.50;3.90;;;11.70;99.90;;;;;;4843788;29;20077;-73
2021/12/30 10:46:23;;;;;;;18.20;4.55;;;11.70;99.90;;;;;;4825730;29;20050;-74
2021/12/30 10:49:05;;;;;;;21.38;4.05;;;11.60;99.90;;;;;;4840587;29;20397;-74
2021/12/30 10:51:35;;;;;;;16.00;4.20;;;11.50;99.90;;;;;;4844120;29;20052;-75
2021/12/30 10:54:15;;;;;;;18.85;4.20;;;11.50;99.90;;;;;;4843158;29;20128;-75
2021/12/30 10:56:49;;;;;;;20.08;4.40;;;11.70;99.90;;;;;;4842007;29;20398;-75
2021/12/30 10:59:24;;;;;;;19.67;4.50;;;11.70;99.90;;;;;;4843300;29;20128;-74
2021/12/30 11:01:53;;;;;;;16.42;4.13;;;11.60;99.90;;;;;;4843074;29;20056;-76
2021/12/30 11:04:21;;;;;;;17.52;3.92;;;11.70;99.90;;;;;;4831141;29;20064;-74
2021/12/30 11:06:47;;;;;;;17.98;4.20;;;11.60;99.90;;;;;;4861011;29;20045;-74
2021/12/30 11:09:13;;;;;;;23.73;4.70;;;11.40;99.90;;;;;;4843938;29;20120;-74
2021/12/30 11:11:48;;;;;;;21.63;4.40;;;11.70;99.90;;;;;;4831767;29;20559;-74
2021/12/30 11:14:18;;;;;;;18.45;5.20;;;11.40;99.90;;;;;;4840665;29;20440;-74
2021/12/30 11:17:10;;;;;;;20.95;5.00;;;11.40;99.90;;;;;;4842250;29;20052;-74
2021/12/30 11:19:42;;;;;;;20.55;4.63;;;11.70;99.90;;;;;;4842287;29;20491;-74
2021/12/30 11:22:20;;;;;;;23.70;5.07;;;11.80;99.90;;;;;;4840956;29;20053;-74
2021/12/30 11:24:48;;;;;;;22.35;4.88;;;11.70;99.90;;;;;;4842148;29;20411;-72
2021/12/30 11:27:15;;;;;;;23.85;4.95;;;11.70;99.90;;;;;;4845297;29;20060;-73
2021/12/30 11:29:45;;;;;;;25.13;5.82;;;11.70;99.90;;;;;;4833690;29;20129;-77
2021/12/30 11:32:13;;;;;;;25.08;6.13;;;11.50;99.90;;;;;;4840217;29;20065;-72
2021/12/30 11:34:39;;;;;;;30.63;6.38;;;11.50;99.90;;;;;;4829223;29;20049;-72
2021/12/30 11:37:05;;;;;;;23.05;6.25;;;11.40;99.90;;;;;;4839142;29;20581;-73
2021/12/30 11:39:31;;;;;;;21.65;5.60;;;11.40;99.90;;;;;;4840871;29;20132;-73
2021/12/30 11:42:06;;;;;;;25.60;5.57;;;11.50;99.90;;;;;;4841540;29;20049;-73
2021/12/30 11:44:42;;;;;;;30.67;6.32;;;11.40;99.90;;;;;;4841124;29;20041;-75
2021/12/30 11:47:29;;;;;;;40.03;6.88;;;11.40;99.90;;;;;;4840418;29;20050;-73
2021/12/30 11:50:02;;;;;;;29.90;6.53;;;11.70;99.90;;;;;;4840471;29;20145;-75
2021/12/30 11:52:52;;;;;;;31.30;6.40;;;11.60;99.90;;;;;;4823431;29;20050;-75
2021/12/30 11:55:43;;;;;;;31.05;6.43;;;11.40;99.90;;;;;;4822029;29;20120;-74
2021/12/30 11:58:27;;;;;;;28.27;5.65;;;11.50;99.90;;;;;;4857139;29;20098;-74
2021/12/30 12:01:01;;;;;;;33.95;6.88;;;11.70;99.90;;;;;;4856780;29;20060;-74
2021/12/30 12:03:37;;;;;;;31.63;7.10;;;11.50;99.90;;;;;;4839655;29;20045;-74
2021/12/30 12:06:05;;;;;;;33.50;6.15;;;11.80;99.90;;;;;;4855913;29;20480;-75
2021/12/30 12:08:45;;;;;;;29.02;5.63;;;11.60;99.90;;;;;;4836395;29;20069;-74
2021/12/30 12:11:14;;;;;;;25.73;5.72;;;11.80;99.90;;;;;;4827896;29;20344;-74
2021/12/30 12:13:42;;;;;;;28.02;5.90;;;11.70;99.90;;;;;;4825766;29;20570;-74
2021/12/30 12:16:09;;;;;;;27.65;5.38;;;11.80;99.90;;;;;;4828756;29;20053;-74
2021/12/30 12:18:34;;;;;;;30.02;6.10;;;11.80;99.90;;;;;;4841413;29;20106;-74
2021/12/30 12:21:04;;;;;;;33.92;6.05;;;11.70;99.90;;;;;;4840306;29;20049;-74
2021/12/30 12:23:34;;;;;;;18.38;4.32;;;11.70;99.90;;;;;;4839487;29;20058;-74
2021/12/30 12:26:09;;;;;;;27.25;5.05;;;11.60;99.90;;;;;;4839492;29;20050;-74
2021/12/30 12:28:35;;;;;;;27.25;6.10;;;11.80;99.90;;;;;;4825740;29;20042;-75
2021/12/30 12:31:02;;;;;;;;;;;11.70;99.90;;;;;;4837220;29;20061;-75
2021/12/30 12:33:31;;;;;;;25.38;5.32;;;11.70;99.90;;;;;;4839383;29;19920;-76
2021/12/30 12:35:57;;;;;;;36.55;6.40;;;11.80;99.90;;;;;;4849471;29;20049;-75
2021/12/30 12:38:36;;;;;;;30.40;5.93;;;11.80;99.90;;;;;;4835348;29;20493;-76
2021/12/30 12:41:22;;;;;;;28.10;5.28;;;11.70;99.90;;;;;;4829695;29;20042;-76
2021/12/30 12:43:55;;;;;;;30.35;5.15;;;11.60;99.90;;;;;;4839848;29;20499;-75
2021/12/30 12:46:40;;;;;;;32.50;6.20;;;11.60;99.90;;;;;;4852049;29;20053;-76
2021/12/30 12:49:06;;;;;;;30.67;5.40;;;11.60;99.90;;;;;;4840331;29;20052;-76
2021/12/30 12:51:34;;;;;;;24.25;5.05;;;11.70;99.90;;;;;;4845129;29;20054;-75
2021/12/30 12:54:05;;;;;;;29.10;6.45;;;11.70;99.90;;;;;;4844594;29;20407;-75
2021/12/30 12:56:34;;;;;;;32.25;6.13;;;11.90;99.90;;;;;;4847776;29;20068;-74
2021/12/30 12:59:09;;;;;;;26.25;5.63;;;11.60;99.90;;;;;;4847606;29;20102;-74
2021/12/30 13:01:35;;;;;;;24.88;5.30;;;11.90;99.90;;;;;;4843301;29;20053;-75
2021/12/30 13:04:04;;;;;;;24.67;5.78;;;11.80;99.90;;;;;;4828732;29;20134;-76
2021/12/30 13:06:37;;;;;;;22.30;4.85;;;11.90;99.90;;;;;;4829538;29;20114;-75
2021/12/30 13:09:08;;;;;;;21.13;4.75;;;11.90;99.90;;;;;;4838766;29;20395;-75
2021/12/30 13:11:39;;;;;;;32.35;5.47;;;11.90;99.90;;;;;;4843809;29;20058;-76
2021/12/30 13:14:19;;;;;;;24.65;4.70;;;11.80;99.90;;;;;;4844303;29;20479;-75
2021/12/30 13:16:54;;;;;;;24.00;5.03;;;11.70;99.90;;;;;;4839915;29;20037;-76
2021/12/30 13:19:22;;;;;;;24.73;5.50;;;11.80;99.90;;;;;;4834121;29;20084;-76
2021/12/30 13:22:04;;;;;;;22.60;5.07;;;11.70;99.90;;;;;;4829431;29;20061;-76
2021/12/30 13:24:33;;;;;;;25.83;5.20;;;11.90;99.90;;;;;;4859386;29;20483;-76
2021/12/30 13:27:01;;;;;;;25.88;5.30;;;11.60;99.90;;;;;;4827243;29;20056;-76
2021/12/30 13:29:29;;;;;;;27.38;5.90;;;11.90;99.90;;;;;;4843972;29;20049;-76